Time;durP1;ratioP1;P1;durP2;ratioP2;P2;SDS_P1;SDS_P2;PMS_P1;PMS_P2;Temp;Humidity;BMP_temperature;BMP_pressure;BME280_temperature;BME280_humidity;BME280_pressure;Samples;Min_cycle;Max_cycle;Signal;HPM_P1;HPM_P2
2022/03/17 00:02:07;;;;;;;19.95;15.70;;;11.30;99.90;;;;;;5030192;28;20026;-78
2022/03/17 00:04:32;;;;;;;20.02;16.30;;;11.40;99.90;;;;;;5029207;28;20075;-77
2022/03/17 00:06:58;;;;;;;19.73;15.48;;;11.30;99.90;;;;;;5027195;28;20033;-76
2022/03/17 00:09:24;;;;;;;17.75;14.20;;;11.30;99.90;;;;;;5012400;28;20021;-77
2022/03/17 00:11:50;;;;;;;17.95;14.05;;;11.30;99.90;;;;;;5009523;28;20393;-77
2022/03/17 00:14:16;;;;;;;17.63;13.85;;;11.30;99.90;;;;;;5031874;28;20033;-77
2022/03/17 00:16:41;;;;;;;15.90;12.93;;;11.30;99.90;;;;;;5027966;28;20393;-78
2022/03/17 00:19:07;;;;;;;21.25;16.70;;;11.30;99.90;;;;;;5027569;28;20049;-77
2022/03/17 00:21:35;;;;;;;21.20;15.82;;;11.30;99.90;;;;;;5026266;28;20036;-77
2022/03/17 00:24:01;;;;;;;19.27;14.55;;;11.20;99.90;;;;;;5028078;28;20032;-77
2022/03/17 00:26:27;;;;;;;19.17;15.23;;;11.30;99.90;;;;;;5028914;28;20032;-76
2022/03/17 00:28:53;;;;;;;19.25;14.77;;;11.20;99.90;;;;;;5000911;28;20075;-77
2022/03/17 00:31:19;;;;;;;20.80;16.77;;;11.20;99.90;;;;;;5032039;28;20029;-77
2022/03/17 00:33:44;;;;;;;24.27;19.15;;;11.20;99.90;;;;;;5030254;28;20398;-77
2022/03/17 00:36:10;;;;;;;20.17;16.23;;;11.20;99.90;;;;;;5027077;28;20049;-77
2022/03/17 00:38:36;;;;;;;19.27;15.93;;;11.20;99.90;;;;;;5029994;28;20025;-76
2022/03/17 00:41:01;;;;;;;17.77;13.43;;;11.20;99.90;;;;;;5028122;28;20033;-77
2022/03/17 00:43:27;;;;;;;22.65;16.50;;;11.10;99.90;;;;;;5011745;28;20026;-77
2022/03/17 00:45:52;;;;;;;19.58;16.75;;;11.10;99.90;;;;;;5029446;28;20080;-77
2022/03/17 00:48:18;;;;;;;19.85;16.67;;;11.10;99.90;;;;;;5026715;28;20025;-77
2022/03/17 00:50:44;;;;;;;16.58;14.65;;;11.10;99.90;;;;;;5027048;28;20099;-76
2022/03/17 00:53:10;;;;;;;17.30;13.63;;;11.10;99.90;;;;;;5030045;28;20029;-77
2022/03/17 00:55:36;;;;;;;17.00;15.02;;;11.10;99.90;;;;;;5027686;28;20040;-77
2022/03/17 00:58:02;;;;;;;20.08;16.40;;;11.10;99.90;;;;;;5012219;28;20022;-77
2022/03/17 01:00:28;;;;;;;19.20;16.15;;;11.10;99.90;;;;;;5029405;28;20037;-77
2022/03/17 01:02:56;;;;;;;20.13;15.32;;;11.10;99.90;;;;;;5032864;28;20025;-77
2022/03/17 01:05:22;;;;;;;19.92;16.50;;;11.10;99.90;;;;;;5028029;28;20026;-77
2022/03/17 01:07:50;;;;;;;23.33;17.52;;;11.10;99.90;;;;;;5010756;28;20220;-77
2022/03/17 01:10:16;;;;;;;21.48;17.42;;;11.10;99.90;;;;;;5007990;28;20367;-77
2022/03/17 01:12:46;;;;;;;21.83;17.83;;;11.00;99.90;;;;;;5032832;28;20087;-78
2022/03/17 01:15:13;;;;;;;21.40;17.75;;;11.00;99.90;;;;;;5011409;28;20029;-77
2022/03/17 01:17:39;;;;;;;20.13;16.20;;;11.00;99.90;;;;;;5007629;28;20034;-77
2022/03/17 01:20:05;;;;;;;24.20;18.63;;;11.00;99.90;;;;;;5011948;28;20028;-77
2022/03/17 01:22:31;;;;;;;18.70;14.82;;;10.90;99.90;;;;;;5025396;28;20060;-77
2022/03/17 01:24:57;;;;;;;18.35;15.05;;;10.90;99.90;;;;;;5025466;28;20030;-77
2022/03/17 01:27:23;;;;;;;17.42;14.77;;;10.90;99.90;;;;;;5028850;28;20473;-78
2022/03/17 01:29:50;;;;;;;18.17;15.07;;;10.80;99.90;;;;;;5025560;28;20037;-77
2022/03/17 01:32:17;;;;;;;18.10;15.07;;;10.90;99.90;;;;;;5028725;28;20435;-77
2022/03/17 01:34:43;;;;;;;20.27;15.38;;;10.90;99.90;;;;;;5044774;28;20033;-77
2022/03/17 01:37:08;;;;;;;22.00;17.23;;;10.80;99.90;;;;;;5029240;28;20394;-77
2022/03/17 01:39:34;;;;;;;18.90;16.27;;;10.90;99.90;;;;;;5028205;28;20064;-77
2022/03/17 01:42:04;;;;;;;21.45;15.80;;;10.80;99.90;;;;;;5025740;28;20501;-77
2022/03/17 01:44:30;;;;;;;18.15;14.95;;;10.80;99.90;;;;;;5027885;28;20021;-77
2022/03/17 01:49:40;;;;;;;22.25;16.48;;;10.80;99.90;;;;;;5027672;28;20583;-77
2022/03/17 01:52:07;;;;;;;18.50;14.48;;;10.80;99.90;;;;;;5028299;28;20120;-77
2022/03/17 01:54:34;;;;;;;16.83;13.88;;;10.70;99.90;;;;;;5028636;28;20112;-77
2022/03/17 01:56:59;;;;;;;17.63;12.52;;;10.80;99.90;;;;;;5028467;28;20040;-77
2022/03/17 01:59:27;;;;;;;14.48;11.65;;;10.70;99.90;;;;;;5029984;28;20515;-76
2022/03/17 02:01:56;;;;;;;19.20;15.93;;;10.70;99.90;;;;;;5041627;28;20470;-77
2022/03/17 02:04:22;;;;;;;14.30;11.85;;;10.80;99.90;;;;;;5029746;28;20032;-77
2022/03/17 02:06:48;;;;;;;19.23;14.98;;;10.70;99.90;;;;;;5014912;28;20034;-76
2022/03/17 02:09:14;;;;;;;21.63;16.60;;;10.80;99.90;;;;;;5033676;28;20041;-77
2022/03/17 02:14:25;;;;;;;15.85;12.35;;;10.80;99.90;;;;;;5031899;28;20037;-78
2022/03/17 02:16:51;;;;;;;17.52;13.52;;;10.80;99.90;;;;;;5029002;28;20045;-77
2022/03/17 02:19:20;;;;;;;16.17;13.00;;;10.80;99.90;;;;;;5031376;28;20381;-78
2022/03/17 02:21:45;;;;;;;18.95;14.68;;;10.80;99.90;;;;;;5025745;28;20056;-77
2022/03/17 02:26:59;;;;;;;14.40;11.68;;;10.80;99.90;;;;;;5024875;28;20433;-77
2022/03/17 02:29:25;;;;;;;16.15;13.38;;;10.80;99.90;;;;;;5046168;28;20087;-77
2022/03/17 02:31:51;;;;;;;15.90;12.60;;;10.80;99.90;;;;;;5009861;28;20029;-77
2022/03/17 02:34:17;;;;;;;16.42;12.85;;;10.80;99.90;;;;;;5019320;28;20070;-77
2022/03/17 02:36:51;;;;;;;14.73;12.07;;;10.80;99.90;;;;;;5030533;28;20582;-77
2022/03/17 02:39:19;;;;;;;18.33;13.90;;;10.80;99.90;;;;;;5024786;28;20383;-77
2022/03/17 02:41:45;;;;;;;14.73;11.68;;;10.90;99.90;;;;;;5034239;28;20370;-76
2022/03/17 02:44:12;;;;;;;15.13;10.75;;;10.80;99.90;;;;;;5031337;28;20056;-77
2022/03/17 02:46:38;;;;;;;14.52;11.60;;;10.80;99.90;;;;;;5030771;28;20053;-77
2022/03/17 02:49:04;;;;;;;15.30;11.57;;;10.90;99.90;;;;;;5030918;28;20037;-77
2022/03/17 02:51:30;;;;;;;16.05;12.10;;;10.80;99.90;;;;;;5013876;28;20024;-77
2022/03/17 02:53:56;;;;;;;15.68;12.63;;;10.80;99.90;;;;;;5030740;28;20025;-77
2022/03/17 02:56:21;;;;;;;15.13;12.32;;;10.80;99.90;;;;;;5033812;28;20466;-77
2022/03/17 02:58:47;;;;;;;17.10;13.25;;;10.80;99.90;;;;;;5014762;28;20057;-77
2022/03/17 03:01:12;;;;;;;16.13;12.38;;;10.90;99.90;;;;;;5030649;28;20037;-77
2022/03/17 03:03:38;;;;;;;14.27;11.55;;;10.80;99.90;;;;;;5035441;28;20549;-77
2022/03/17 03:06:04;;;;;;;14.50;11.00;;;10.80;99.90;;;;;;5032862;28;20117;-78
2022/03/17 03:08:30;;;;;;;17.40;13.05;;;10.80;99.90;;;;;;5033440;28;20061;-77
2022/03/17 03:10:57;;;;;;;16.63;11.75;;;10.90;99.90;;;;;;5013612;28;20083;-77
2022/03/17 03:13:22;;;;;;;15.93;13.02;;;10.90;99.90;;;;;;5018016;28;20029;-78
2022/03/17 03:15:50;;;;;;;16.50;12.40;;;10.90;99.90;;;;;;5031737;28;20030;-78
2022/03/17 03:18:17;;;;;;;19.42;13.38;;;10.90;99.90;;;;;;5028028;28;20029;-78
2022/03/17 03:20:43;;;;;;;20.35;14.15;;;11.00;99.90;;;;;;5029874;28;20112;-79
2022/03/17 03:23:08;;;;;;;19.65;13.43;;;11.00;99.90;;;;;;5030859;28;20116;-78
2022/03/17 03:25:34;;;;;;;17.58;12.65;;;11.00;99.90;;;;;;5032305;28;20034;-77
2022/03/17 03:28:07;;;;;;;17.60;13.30;;;11.00;99.90;;;;;;5030125;28;20112;-78
2022/03/17 03:30:33;;;;;;;19.08;13.63;;;11.00;99.90;;;;;;5021864;28;20064;-77
2022/03/17 03:32:59;;;;;;;19.45;12.88;;;11.00;99.90;;;;;;5030375;28;20099;-77
2022/03/17 03:38:09;;;;;;;18.88;14.20;;;11.00;99.90;;;;;;5030955;28;20501;-78
2022/03/17 03:40:34;;;;;;;17.33;12.88;;;10.90;99.90;;;;;;5010261;28;20030;-77
2022/03/17 03:43:00;;;;;;;21.23;15.48;;;10.80;99.90;;;;;;5024460;28;20042;-78
2022/03/17 03:45:26;;;;;;;23.30;17.25;;;10.90;99.90;;;;;;5011413;28;20026;-79
2022/03/17 03:47:52;;;;;;;21.05;15.23;;;10.80;99.90;;;;;;5012521;28;20025;-78
2022/03/17 03:50:17;;;;;;;21.05;15.05;;;10.80;99.90;;;;;;5029268;28;20025;-77
2022/03/17 03:52:43;;;;;;;20.55;16.50;;;10.70;99.90;;;;;;5030375;28;20042;-79
2022/03/17 03:55:09;;;;;;;21.73;16.20;;;10.70;99.90;;;;;;5028828;28;20041;-77
2022/03/17 03:57:35;;;;;;;20.95;16.08;;;10.50;99.90;;;;;;5025846;28;20034;-80
2022/03/17 04:00:02;;;;;;;20.42;14.95;;;10.50;99.90;;;;;;5030677;28;20040;-78
2022/03/17 04:02:37;;;;;;;18.48;12.30;;;10.50;99.90;;;;;;5030081;28;20037;-78
2022/03/17 04:05:03;;;;;;;19.58;13.75;;;10.40;99.90;;;;;;5032302;28;20452;-78
2022/03/17 04:07:29;;;;;;;18.40;13.32;;;10.30;99.90;;;;;;5028901;28;20287;-78
2022/03/17 04:09:55;;;;;;;17.73;13.48;;;10.30;99.90;;;;;;5030480;28;20353;-78
2022/03/17 04:12:21;;;;;;;20.55;14.50;;;10.30;99.90;;;;;;5028625;28;20022;-78
2022/03/17 04:14:46;;;;;;;18.15;13.50;;;10.20;99.90;;;;;;5027829;28;20029;-78
2022/03/17 04:17:12;;;;;;;22.52;15.88;;;10.20;99.90;;;;;;5028187;28;20033;-79
2022/03/17 04:19:37;;;;;;;20.92;14.52;;;10.20;99.90;;;;;;5030367;28;20080;-78
2022/03/17 04:22:03;;;;;;;24.15;17.38;;;10.10;99.90;;;;;;5028594;28;20060;-78
2022/03/17 04:24:29;;;;;;;20.00;14.40;;;10.20;99.90;;;;;;5030610;28;20048;-78
2022/03/17 04:26:54;;;;;;;21.58;15.32;;;10.10;99.90;;;;;;5029037;28;20116;-79
2022/03/17 04:29:20;;;;;;;19.70;15.38;;;10.10;99.90;;;;;;5028277;28;20031;-80
2022/03/17 04:31:46;;;;;;;17.52;12.70;;;10.00;99.90;;;;;;5028380;28;20057;-79
2022/03/17 04:34:12;;;;;;;10.98;7.68;;;9.80;99.90;;;;;;5027321;28;20371;-79
2022/03/17 04:36:37;;;;;;;6.65;4.65;;;9.60;99.90;;;;;;5032057;28;20045;-79
2022/03/17 04:39:05;;;;;;;6.90;4.00;;;9.50;99.90;;;;;;5028007;28;20040;-79
2022/03/17 04:41:31;;;;;;;5.28;2.78;;;9.40;99.90;;;;;;5029606;28;20040;-79
2022/03/17 04:43:56;;;;;;;4.40;2.42;;;9.30;99.90;;;;;;5028475;28;20022;-79
2022/03/17 04:46:22;;;;;;;4.47;1.77;;;9.10;99.90;;;;;;5027668;28;20037;-78
2022/03/17 04:48:48;;;;;;;4.05;1.80;;;9.00;99.90;;;;;;5009927;28;20025;-78
2022/03/17 04:51:15;;;;;;;3.72;1.92;;;9.00;99.90;;;;;;5032070;28;20052;-79
2022/03/17 04:53:41;;;;;;;3.42;1.50;;;9.00;99.90;;;;;;5027863;28;20025;-77
2022/03/17 04:56:10;;;;;;;3.17;1.60;;;8.90;99.90;;;;;;5028328;28;20489;-79
2022/03/17 04:58:38;;;;;;;3.00;1.27;;;8.90;99.90;;;;;;5005647;28;20029;-78
2022/03/17 05:01:06;;;;;;;4.38;1.67;;;8.90;99.90;;;;;;5043345;28;20048;-78
2022/03/17 05:03:33;;;;;;;4.90;2.47;;;8.90;99.90;;;;;;5019346;28;20041;-77
2022/03/17 05:05:59;;;;;;;3.83;1.90;;;8.90;99.90;;;;;;5028401;28;20436;-78
2022/03/17 05:08:25;;;;;;;5.60;2.00;;;8.80;99.90;;;;;;5032371;28;20028;-78
2022/03/17 05:10:52;;;;;;;4.55;1.90;;;8.80;99.90;;;;;;5030114;28;20385;-77
2022/03/17 05:13:19;;;;;;;5.38;2.40;;;8.80;99.90;;;;;;5026840;28;20054;-78
2022/03/17 05:15:46;;;;;;;4.35;2.30;;;8.80;99.90;;;;;;5032484;28;20033;-78
2022/03/17 05:18:12;;;;;;;5.07;2.53;;;8.80;99.90;;;;;;5024551;28;20440;-79
2022/03/17 05:20:40;;;;;;;5.07;3.00;;;8.70;99.90;;;;;;5026210;28;20030;-78
2022/03/17 05:23:17;;;;;;;7.97;2.97;;;8.70;99.90;;;;;;5032354;28;20065;-79
2022/03/17 05:25:44;;;;;;;7.32;4.15;;;8.70;99.90;;;;;;5024578;28;20043;-78
2022/03/17 05:28:10;;;;;;;6.75;4.25;;;8.70;99.90;;;;;;5027334;28;20543;-78
2022/03/17 05:30:38;;;;;;;8.77;5.63;;;8.60;99.90;;;;;;5028417;28;20056;-78
2022/03/17 05:33:04;;;;;;;7.13;5.55;;;8.60;99.90;;;;;;5033162;28;20030;-78
2022/03/17 05:35:31;;;;;;;10.90;5.45;;;8.60;99.90;;;;;;5034080;28;20043;-76
2022/03/17 05:37:57;;;;;;;8.95;5.15;;;8.60;99.90;;;;;;5028999;28;20375;-79
2022/03/17 05:40:23;;;;;;;9.40;5.00;;;8.60;99.90;;;;;;5033240;28;20029;-77
2022/03/17 05:42:52;;;;;;;9.75;5.78;;;8.60;99.90;;;;;;5030700;28;20497;-77
2022/03/17 05:45:18;;;;;;;5.95;4.70;;;8.60;99.90;;;;;;5031679;28;20029;-77
2022/03/17 05:47:46;;;;;;;7.95;4.35;;;8.50;99.90;;;;;;5031847;28;20073;-77
2022/03/17 05:50:14;;;;;;;11.77;7.25;;;8.50;99.90;;;;;;5032773;28;20032;-77
2022/03/17 05:52:42;;;;;;;13.07;7.68;;;8.50;99.90;;;;;;5035212;28;20044;-77
2022/03/17 05:55:11;;;;;;;15.98;8.38;;;8.50;99.90;;;;;;5033051;28;20033;-79
2022/03/17 05:57:42;;;;;;;15.48;8.30;;;8.40;99.90;;;;;;5031484;28;20512;-78
2022/03/17 06:00:11;;;;;;;13.40;7.38;;;8.40;99.90;;;;;;5030107;28;20528;-77
2022/03/17 06:02:37;;;;;;;12.93;6.45;;;8.40;99.90;;;;;;5014175;28;20052;-78
2022/03/17 06:05:05;;;;;;;6.95;4.20;;;8.30;99.90;;;;;;5031287;28;20592;-77
2022/03/17 06:07:38;;;;;;;6.30;3.03;;;8.30;99.90;;;;;;5029186;28;20029;-78
2022/03/17 06:10:05;;;;;;;6.85;2.65;;;8.30;99.90;;;;;;5029626;28;20066;-78
2022/03/17 06:12:31;;;;;;;9.27;2.75;;;8.40;99.90;;;;;;5032248;28;20029;-78
2022/03/17 06:14:57;;;;;;;8.48;2.80;;;8.30;99.90;;;;;;5031462;28;20030;-78
2022/03/17 06:17:34;;;;;;;8.93;2.58;;;8.30;99.90;;;;;;5031329;28;20041;-78
2022/03/17 06:20:00;;;;;;;13.75;2.85;;;8.30;99.90;;;;;;5032843;28;20091;-78
2022/03/17 06:22:26;;;;;;;11.20;2.40;;;8.20;99.90;;;;;;5036188;28;20497;-77
2022/03/17 06:24:51;;;;;;;8.13;2.08;;;8.20;99.90;;;;;;5013906;28;20026;-77
2022/03/17 06:27:17;;;;;;;10.55;1.83;;;8.20;99.90;;;;;;5030560;28;20030;-77
2022/03/17 06:29:42;;;;;;;8.85;1.30;;;8.20;99.90;;;;;;5027367;28;20087;-77
2022/03/17 06:32:08;;;;;;;11.32;1.67;;;8.10;99.90;;;;;;5029671;28;20026;-77
2022/03/17 06:34:34;;;;;;;9.35;1.45;;;8.10;99.90;;;;;;4997790;28;20409;-78
2022/03/17 06:37:00;;;;;;;9.63;1.55;;;8.10;99.90;;;;;;5030890;28;20044;-77
2022/03/17 06:39:25;;;;;;;6.53;1.30;;;8.10;99.90;;;;;;5012941;28;20348;-76
2022/03/17 06:41:51;;;;;;;6.45;1.42;;;8.10;99.90;;;;;;5032125;28;20029;-77
2022/03/17 06:44:16;;;;;;;6.32;1.08;;;8.10;99.90;;;;;;5014256;28;20025;-77
2022/03/17 06:46:42;;;;;;;7.65;1.10;;;8.10;99.90;;;;;;5029586;28;20053;-77
2022/03/17 06:49:07;;;;;;;8.70;1.23;;;8.00;99.90;;;;;;5012407;28;20076;-77
2022/03/17 06:51:33;;;;;;;11.55;1.45;;;8.00;99.90;;;;;;5033747;28;20063;-77
2022/03/17 06:53:58;;;;;;;9.50;1.13;;;8.00;99.90;;;;;;5028451;28;20071;-77
2022/03/17 06:56:24;;;;;;;8.05;0.80;;;8.00;99.90;;;;;;5045738;28;20037;-77
2022/03/17 06:58:50;;;;;;;6.05;0.90;;;8.00;99.90;;;;;;5008959;28;20040;-78
2022/03/17 07:01:15;;;;;;;7.28;0.65;;;8.00;99.90;;;;;;5025694;28;20365;-77
2022/03/17 07:03:41;;;;;;;9.95;0.93;;;8.00;99.90;;;;;;5026289;28;20025;-78
2022/03/17 07:06:06;;;;;;;8.95;0.85;;;7.90;99.90;;;;;;5024887;28;20397;-77
2022/03/17 07:08:32;;;;;;;8.98;1.73;;;8.00;99.90;;;;;;5007865;28;20029;-78
2022/03/17 07:10:57;;;;;;;10.05;1.30;;;8.00;99.90;;;;;;5029835;28;20040;-78
2022/03/17 07:13:23;;;;;;;7.53;1.10;;;8.00;99.90;;;;;;5026637;28;20030;-77
2022/03/17 07:15:48;;;;;;;5.47;0.50;;;8.10;99.90;;;;;;5032457;28;20079;-77
2022/03/17 07:18:14;;;;;;;7.40;0.82;;;8.00;99.90;;;;;;5011727;28;20539;-77
2022/03/17 07:20:40;;;;;;;5.68;0.68;;;8.00;99.90;;;;;;5025367;28;20041;-77
2022/03/17 07:23:06;;;;;;;5.88;0.60;;;8.00;99.90;;;;;;5018363;28;20040;-76
2022/03/17 07:25:31;;;;;;;8.25;0.60;;;8.00;99.90;;;;;;5030175;28;20490;-77
2022/03/17 07:27:58;;;;;;;9.82;1.00;;;8.00;99.90;;;;;;4996790;28;20030;-77
2022/03/17 07:30:24;;;;;;;6.35;0.50;;;8.00;99.90;;;;;;5012001;28;20151;-76
2022/03/17 07:32:52;;;;;;;10.20;1.20;;;8.10;99.90;;;;;;5029235;28;20033;-77
2022/03/17 07:35:19;;;;;;;5.70;0.60;;;8.10;99.90;;;;;;5044795;28;20453;-77
2022/03/17 07:37:45;;;;;;;6.28;0.80;;;8.00;99.90;;;;;;5012686;28;20064;-77
2022/03/17 07:40:11;;;;;;;10.73;0.80;;;8.10;99.90;;;;;;5030325;28;20052;-77
2022/03/17 07:42:37;;;;;;;7.03;1.05;;;8.00;99.90;;;;;;5012171;28;20116;-77
2022/03/17 07:45:21;;;;;;;11.05;1.10;;;8.10;99.90;;;;;;5026927;28;20512;-78
2022/03/17 07:48:05;;;;;;;10.98;1.38;;;8.00;99.90;;;;;;5028142;28;20043;-77
2022/03/17 07:50:32;;;;;;;9.60;1.10;;;8.00;99.90;;;;;;5028399;28;20112;-76
2022/03/17 07:52:59;;;;;;;10.85;1.48;;;8.00;99.90;;;;;;5029697;28;20025;-78
2022/03/17 07:55:25;;;;;;;10.18;1.25;;;8.00;99.90;;;;;;5031457;28;20056;-77
2022/03/17 07:57:51;;;;;;;10.82;1.00;;;8.00;99.90;;;;;;5028336;28;20080;-78
2022/03/17 08:00:17;;;;;;;17.80;1.33;;;7.90;99.90;;;;;;5027724;28;20025;-76
2022/03/17 08:02:42;;;;;;;12.18;2.00;;;7.90;99.90;;;;;;5005697;28;20037;-77
2022/03/17 08:05:10;;;;;;;12.05;1.13;;;8.00;99.90;;;;;;5028600;28;20120;-77
2022/03/17 08:07:35;;;;;;;7.70;0.90;;;8.00;99.90;;;;;;5023129;28;20037;-76
2022/03/17 08:10:02;;;;;;;9.63;0.93;;;8.10;99.90;;;;;;5029724;28;20454;-77
2022/03/17 08:12:30;;;;;;;7.68;0.80;;;8.20;99.90;;;;;;5024389;28;20030;-77
2022/03/17 08:14:56;;;;;;;7.47;0.52;;;8.20;99.90;;;;;;5025270;28;20032;-77
2022/03/17 08:17:21;;;;;;;7.20;0.60;;;8.20;99.90;;;;;;5032336;28;20128;-76
2022/03/17 08:19:47;;;;;;;7.25;0.40;;;8.30;99.90;;;;;;5028371;28;20083;-76
2022/03/17 08:22:13;;;;;;;5.60;0.20;;;8.30;99.90;;;;;;5023350;28;20517;-79
2022/03/17 08:24:38;;;;;;;6.90;0.30;;;8.30;99.90;;;;;;5011775;28;20497;-77
2022/03/17 08:27:05;;;;;;;6.45;0.20;;;8.30;99.90;;;;;;5027899;28;20112;-78
2022/03/17 08:29:31;;;;;;;4.15;0.90;;;8.30;99.90;;;;;;5010812;28;20216;-79
2022/03/17 08:31:59;;;;;;;7.10;0.57;;;8.40;99.90;;;;;;5029286;28;20022;-78
2022/03/17 08:34:26;;;;;;;8.32;0.32;;;8.30;99.90;;;;;;4994622;28;20116;-78
2022/03/17 08:36:54;;;;;;;5.53;0.30;;;8.30;99.90;;;;;;5028255;28;20601;-77
2022/03/17 08:39:20;;;;;;;5.53;0.30;;;8.30;99.90;;;;;;5031776;28;20033;-78
2022/03/17 08:41:46;;;;;;;6.60;0.57;;;8.30;99.90;;;;;;5022103;28;20045;-79
2022/03/17 08:44:11;;;;;;;3.63;0.30;;;8.30;99.90;;;;;;4995862;28;20026;-78
2022/03/17 08:49:24;;;;;;;5.53;0.30;;;8.30;99.90;;;;;;5026798;28;20036;-78
2022/03/17 08:51:52;;;;;;;6.78;0.40;;;8.40;99.90;;;;;;5030579;28;20385;-79
2022/03/17 08:54:20;;;;;;;8.13;0.50;;;8.40;99.90;;;;;;5027681;28;20059;-79
2022/03/17 08:56:46;;;;;;;10.93;0.55;;;8.30;99.90;;;;;;5032099;28;20037;-79
2022/03/17 08:59:12;;;;;;;6.97;0.75;;;8.30;99.90;;;;;;5027368;28;20355;-78
2022/03/17 09:01:37;;;;;;;7.68;0.30;;;8.20;99.90;;;;;;5029535;28;20045;-78
2022/03/17 09:04:07;;;;;;;7.25;0.40;;;8.30;99.90;;;;;;5030461;28;20261;-78
2022/03/17 09:06:33;;;;;;;7.57;0.35;;;8.30;99.90;;;;;;5027269;28;20037;-78
2022/03/17 09:08:59;;;;;;;6.93;0.38;;;8.40;99.90;;;;;;5027770;28;20032;-78
2022/03/17 09:11:26;;;;;;;9.57;0.40;;;8.40;99.90;;;;;;5029442;28;20461;-78
2022/03/17 09:13:52;;;;;;;3.47;0.30;;;8.40;99.90;;;;;;5033337;28;20025;-77
2022/03/17 09:16:17;;;;;;;6.03;0.40;;;8.50;99.90;;;;;;5031922;28;20508;-77
2022/03/17 09:18:43;;;;;;;7.72;0.63;;;8.60;99.90;;;;;;5015803;28;20030;-78
2022/03/17 09:21:09;;;;;;;6.13;0.30;;;8.60;99.90;;;;;;5034830;28;20037;-78
2022/03/17 09:23:35;;;;;;;6.35;0.30;;;8.70;99.90;;;;;;5027003;28;20123;-77
2022/03/17 09:26:01;;;;;;;7.32;0.75;;;8.90;99.90;;;;;;5032070;28;20029;-77
2022/03/17 09:28:27;;;;;;;7.32;0.30;;;8.90;99.90;;;;;;5032581;28;20072;-78
2022/03/17 09:30:57;;;;;;;4.07;0.30;;;8.90;99.90;;;;;;5036249;28;20048;-77
2022/03/17 09:33:26;;;;;;;6.13;0.52;;;8.90;99.90;;;;;;5032523;28;20099;-78
2022/03/17 09:35:56;;;;;;;4.32;0.40;;;8.80;99.90;;;;;;5027939;28;20045;-78
2022/03/17 09:38:23;;;;;;;1.50;0.25;;;8.90;99.90;;;;;;5026331;28;20033;-77
2022/03/17 09:40:49;;;;;;;4.40;0.30;;;8.90;99.90;;;;;;5029059;28;20482;-78
2022/03/17 09:43:28;;;;;;;6.53;0.50;;;8.90;99.90;;;;;;5031160;28;20032;-77
2022/03/17 09:45:56;;;;;;;6.23;0.30;;;9.00;99.90;;;;;;5024833;28;20061;-78
2022/03/17 09:48:26;;;;;;;4.43;0.30;;;9.00;99.90;;;;;;5009319;28;20084;-78
2022/03/17 09:50:58;;;;;;;7.30;0.57;;;8.80;99.90;;;;;;5020192;28;20082;-78
2022/03/17 09:53:25;;;;;;;9.38;0.40;;;8.80;99.90;;;;;;5042809;28;20054;-77
2022/03/17 09:55:51;;;;;;;5.82;0.50;;;8.90;99.90;;;;;;5043894;28;20048;-77
2022/03/17 09:58:17;;;;;;;5.60;0.40;;;8.90;99.90;;;;;;5031191;28;20033;-78
2022/03/17 10:00:49;;;;;;;7.00;0.40;;;8.90;99.90;;;;;;5031294;28;20488;-79
2022/03/17 10:03:20;;;;;;;6.43;0.40;;;8.90;99.90;;;;;;5025668;28;20037;-78
2022/03/17 10:05:46;;;;;;;7.50;0.30;;;8.90;99.90;;;;;;5035819;28;20393;-77
2022/03/17 10:08:13;;;;;;;12.32;0.43;;;8.90;99.90;;;;;;5029584;28;20453;-77
2022/03/17 10:10:40;;;;;;;8.23;0.70;;;9.00;99.90;;;;;;5030760;28;20124;-77
2022/03/17 10:13:19;;;;;;;8.88;0.50;;;8.90;99.90;;;;;;5014015;28;20061;-77
2022/03/17 10:15:48;;;;;;;9.43;0.50;;;9.00;99.90;;;;;;5034263;28;20484;-77
2022/03/17 10:18:25;;;;;;;9.38;0.40;;;9.10;99.90;;;;;;5028120;28;20162;-78
2022/03/17 10:21:06;;;;;;;9.55;0.35;;;9.10;99.90;;;;;;5027063;28;20458;-77
2022/03/17 10:23:33;;;;;;;8.57;0.40;;;9.10;99.90;;;;;;5024575;28;20037;-78
2022/03/17 10:25:59;;;;;;;5.68;0.32;;;9.10;99.90;;;;;;5016676;28;20436;-77
2022/03/17 10:28:27;;;;;;;6.03;0.30;;;9.20;99.90;;;;;;5013516;28;20084;-78
2022/03/17 10:31:04;;;;;;;6.55;0.50;;;9.30;99.90;;;;;;5031735;28;20064;-77
2022/03/17 10:33:31;;;;;;;8.55;0.47;;;9.20;99.90;;;;;;5013200;28;20044;-77
2022/03/17 10:36:21;;;;;;;6.28;0.50;;;9.20;99.90;;;;;;5031571;28;20494;-78
2022/03/17 10:38:49;;;;;;;4.03;0.30;;;9.20;99.90;;;;;;4998421;28;20025;-78
2022/03/17 10:41:15;;;;;;;6.57;0.50;;;9.30;99.90;;;;;;5031259;28;20470;-78
2022/03/17 10:43:42;;;;;;;5.65;0.47;;;9.30;99.90;;;;;;5033862;28;20044;-78
2022/03/17 10:46:29;;;;;;;8.00;0.40;;;9.30;99.90;;;;;;5031410;28;20093;-78
2022/03/17 10:49:00;;;;;;;6.72;0.30;;;9.40;99.90;;;;;;5008959;28;20025;-78
2022/03/17 10:51:32;;;;;;;3.58;0.30;;;9.40;99.90;;;;;;5028316;28;20286;-77
2022/03/17 10:54:07;;;;;;;4.88;0.30;;;9.30;99.90;;;;;;5024718;28;20033;-77
2022/03/17 10:56:35;;;;;;;5.15;0.30;;;9.40;99.90;;;;;;5009129;28;20088;-77
2022/03/17 10:59:01;;;;;;;4.47;0.30;;;9.50;99.90;;;;;;5009694;28;20347;-78
2022/03/17 11:01:45;;;;;;;5.53;0.50;;;9.60;99.90;;;;;;5029501;28;20057;-78
2022/03/17 11:04:11;;;;;;;9.05;0.30;;;9.40;99.90;;;;;;5042553;28;20026;-77
2022/03/17 11:06:38;;;;;;;3.90;0.30;;;9.50;99.90;;;;;;5030969;28;20082;-77
2022/03/17 11:09:05;;;;;;;4.43;0.40;;;9.50;99.90;;;;;;5031020;28;20026;-77
2022/03/17 11:11:31;;;;;;;6.57;0.40;;;9.60;99.90;;;;;;5029625;28;20167;-78
2022/03/17 11:13:58;;;;;;;3.28;0.30;;;9.50;99.90;;;;;;5012913;28;20124;-77
2022/03/17 11:16:55;;;;;;;5.88;0.40;;;9.80;99.90;;;;;;5016607;28;20163;-78
2022/03/17 11:19:24;;;;;;;5.30;0.40;;;9.70;99.90;;;;;;5019422;28;20052;-78
2022/03/17 11:22:08;;;;;;;5.65;0.45;;;9.90;99.90;;;;;;5027576;28;20037;-78
2022/03/17 11:24:35;;;;;;;5.43;0.88;;;9.80;99.90;;;;;;5026904;28;20038;-78
2022/03/17 11:27:12;;;;;;;5.93;0.50;;;9.70;99.90;;;;;;5030035;28;20059;-78
2022/03/17 11:29:39;;;;;;;7.18;0.50;;;9.70;99.90;;;;;;5028193;28;20469;-79
2022/03/17 11:32:08;;;;;;;4.75;0.50;;;9.80;99.90;;;;;;5011585;28;20394;-78
2022/03/17 11:34:47;;;;;;;7.10;0.63;;;9.80;99.90;;;;;;5023369;28;20043;-79
2022/03/17 11:37:14;;;;;;;7.65;0.65;;;9.80;99.90;;;;;;5023420;28;20041;-78
2022/03/17 11:39:53;;;;;;;8.50;0.70;;;9.70;99.90;;;;;;5043349;28;20112;-78
2022/03/17 11:42:37;;;;;;;5.90;0.60;;;9.60;99.90;;;;;;5043246;28;20104;-78
2022/03/17 11:45:15;;;;;;;4.78;0.50;;;9.60;99.90;;;;;;5027014;28;20348;-78
2022/03/17 11:48:08;;;;;;;4.82;0.75;;;9.90;99.90;;;;;;5024608;28;20100;-78
2022/03/17 11:50:36;;;;;;;3.72;0.57;;;10.10;99.90;;;;;;5000458;28;20049;-77
2022/03/17 11:53:07;;;;;;;7.85;0.52;;;10.00;99.90;;;;;;5003242;28;20159;-78
2022/03/17 11:55:42;;;;;;;4.30;0.40;;;9.90;99.90;;;;;;5018071;28;20493;-79
2022/03/17 11:58:41;;;;;;;4.53;0.40;;;9.90;99.90;;;;;;5018940;28;20033;-77
2022/03/17 12:01:27;;;;;;;4.77;0.40;;;9.80;99.90;;;;;;5013010;28;20553;-78
2022/03/17 12:04:22;;;;;;;3.70;0.38;;;9.90;99.90;;;;;;5021430;28;20045;-78
2022/03/17 12:07:05;;;;;;;5.43;0.40;;;9.80;99.90;;;;;;5019318;28;20156;-78
2022/03/17 12:09:34;;;;;;;4.93;0.40;;;9.80;99.90;;;;;;5040081;28;20040;-77
2022/03/17 12:11:59;;;;;;;2.05;0.30;;;9.90;99.90;;;;;;5007113;28;20029;-78
2022/03/17 12:14:25;;;;;;;3.13;0.50;;;10.10;99.90;;;;;;5024318;28;20058;-78
2022/03/17 12:17:00;;;;;;;5.57;0.40;;;10.00;99.90;;;;;;5023095;28;20088;-78
2022/03/17 12:19:32;;;;;;;5.90;0.60;;;10.00;99.90;;;;;;5023304;28;20041;-77
2022/03/17 12:21:57;;;;;;;4.47;0.50;;;9.90;99.90;;;;;;5016457;28;20029;-77
2022/03/17 12:24:46;;;;;;;4.50;0.60;;;10.00;99.90;;;;;;5006348;28;20032;-77
2022/03/17 12:27:38;;;;;;;2.13;0.40;;;10.00;99.90;;;;;;5023292;28;20017;-78
2022/03/17 12:30:05;;;;;;;10.73;0.50;;;10.30;99.90;;;;;;5017579;28;20562;-77
2022/03/17 12:32:38;;;;;;;5.20;0.40;;;10.30;99.90;;;;;;5000717;28;20036;-78
2022/03/17 12:35:06;;;;;;;3.00;0.40;;;10.30;99.90;;;;;;5022660;28;20069;-77
2022/03/17 12:37:34;;;;;;;2.78;0.30;;;10.50;99.90;;;;;;5014912;28;20041;-78
2022/03/17 12:40:03;;;;;;;3.10;0.47;;;10.70;99.90;;;;;;5006829;28;20029;-79
2022/03/17 12:42:37;;;;;;;3.58;0.57;;;10.80;99.90;;;;;;5006049;28;20040;-78
2022/03/17 12:45:05;;;;;;;4.35;0.68;;;10.80;99.90;;;;;;5000639;28;20095;-78
2022/03/17 12:47:34;;;;;;;2.67;0.30;;;10.70;99.90;;;;;;5020745;28;20049;-79
2022/03/17 12:50:03;;;;;;;3.65;0.40;;;10.70;99.90;;;;;;4999704;28;20075;-78
2022/03/17 12:52:31;;;;;;;4.32;0.43;;;10.80;99.90;;;;;;5000774;28;20037;-78
2022/03/17 12:54:58;;;;;;;6.07;0.40;;;10.80;99.90;;;;;;5007807;28;20025;-78
2022/03/17 12:57:27;;;;;;;3.97;0.50;;;10.70;99.90;;;;;;5006394;28;20045;-77
2022/03/17 12:59:53;;;;;;;2.70;0.32;;;10.70;99.90;;;;;;5024571;28;20027;-77
2022/03/17 13:02:20;;;;;;;2.83;0.30;;;10.70;99.90;;;;;;5023724;28;20095;-78
2022/03/17 13:04:52;;;;;;;3.70;0.40;;;10.70;99.90;;;;;;5023471;28;20033;-78